Time;durP1;ratioP1;P1;durP2;ratioP2;P2;SDS_P1;SDS_P2;PMS_P1;PMS_P2;Temp;Humidity;BMP_temperature;BMP_pressure;BME280_temperature;BME280_humidity;BME280_pressure;Samples;Min_cycle;Max_cycle;Signal;HPM_P1;HPM_P2
2023/01/08 00:01:23;;;;;;;4.93;3.20;;;9.50;99.90;;;;;;4991452;28;20092;-76
2023/01/08 00:03:48;;;;;;;4.60;3.35;;;9.60;99.90;;;;;;4988831;28;20413;-76
2023/01/08 00:06:17;;;;;;;4.97;3.50;;;9.60;99.90;;;;;;4975259;28;20046;-76
2023/01/08 00:08:43;;;;;;;4.20;3.03;;;9.60;99.90;;;;;;4975369;28;20042;-76
2023/01/08 00:11:09;;;;;;;4.30;3.05;;;9.60;99.90;;;;;;4973180;28;20054;-76
2023/01/08 00:13:35;;;;;;;5.47;3.40;;;9.70;99.90;;;;;;4975137;28;20070;-76
2023/01/08 00:16:07;;;;;;;4.80;3.65;;;9.60;99.90;;;;;;4990642;28;20081;-76
2023/01/08 00:18:33;;;;;;;4.03;3.22;;;9.60;99.90;;;;;;4974976;28;20070;-76
2023/01/08 00:20:58;;;;;;;4.07;3.28;;;9.70;99.90;;;;;;4996298;28;20019;-76
2023/01/08 00:23:24;;;;;;;4.25;3.28;;;9.60;99.90;;;;;;4969430;28;20045;-76
2023/01/08 00:25:50;;;;;;;4.35;3.30;;;9.60;99.90;;;;;;4956551;28;20039;-76
2023/01/08 00:28:15;;;;;;;4.35;3.60;;;9.70;99.90;;;;;;4979197;28;20121;-76
2023/01/08 00:30:41;;;;;;;3.92;3.53;;;9.60;99.90;;;;;;4988966;28;20485;-76
2023/01/08 00:33:08;;;;;;;4.93;3.63;;;9.60;99.90;;;;;;4991022;28;20512;-76
2023/01/08 00:35:34;;;;;;;4.75;3.92;;;9.60;99.90;;;;;;4991310;28;20385;-76
2023/01/08 00:38:00;;;;;;;4.25;3.42;;;9.50;99.90;;;;;;4975000;28;20464;-76
2023/01/08 00:40:25;;;;;;;4.57;4.05;;;9.60;99.90;;;;;;4991439;28;20105;-76
2023/01/08 00:42:51;;;;;;;5.30;4.10;;;9.60;99.90;;;;;;4957714;28;20045;-76
2023/01/08 00:45:16;;;;;;;6.85;4.00;;;9.50;99.90;;;;;;4991404;28;20034;-76
2023/01/08 00:47:42;;;;;;;4.90;3.88;;;9.50;99.90;;;;;;4974126;28;20485;-76
2023/01/08 00:50:08;;;;;;;5.65;4.03;;;9.50;99.90;;;;;;4962623;28;20069;-76
2023/01/08 00:52:34;;;;;;;4.88;3.67;;;9.50;99.90;;;;;;4954445;28;20035;-76
2023/01/08 00:54:59;;;;;;;3.97;3.58;;;9.50;99.90;;;;;;4980351;28;20457;-76
2023/01/08 00:57:25;;;;;;;5.82;3.15;;;9.40;99.90;;;;;;4976674;28;20113;-76
2023/01/08 00:59:51;;;;;;;4.40;2.95;;;9.50;99.90;;;;;;4987029;28;20437;-76
2023/01/08 01:02:16;;;;;;;4.05;2.13;;;9.40;99.90;;;;;;4974413;28;20092;-76
2023/01/08 01:04:42;;;;;;;3.95;2.30;;;9.30;99.90;;;;;;4970590;28;20102;-76
2023/01/08 01:07:08;;;;;;;4.15;1.90;;;9.20;99.90;;;;;;4949201;28;1191313;-76
2023/01/08 01:09:33;;;;;;;3.60;1.52;;;9.20;99.90;;;;;;4990752;28;20140;-76
2023/01/08 01:11:59;;;;;;;3.88;1.42;;;9.10;99.90;;;;;;4991286;28;20158;-76
2023/01/08 01:14:25;;;;;;;2.58;1.20;;;9.00;99.90;;;;;;4992852;28;20092;-76
2023/01/08 01:16:50;;;;;;;3.50;1.10;;;9.00;99.90;;;;;;4975073;28;20034;-76
2023/01/08 01:19:17;;;;;;;3.15;1.15;;;8.90;99.90;;;;;;4974356;28;20050;-76
2023/01/08 01:21:43;;;;;;;3.45;1.08;;;8.70;99.90;;;;;;4976979;28;20045;-76
2023/01/08 01:24:10;;;;;;;5.20;1.10;;;8.60;99.90;;;;;;4974802;28;20047;-76
2023/01/08 01:26:36;;;;;;;4.53;1.00;;;8.50;99.90;;;;;;4970809;28;20247;-76
2023/01/08 01:29:02;;;;;;;5.28;1.60;;;8.50;99.90;;;;;;4962910;28;20485;-76
2023/01/08 01:31:29;;;;;;;4.22;1.25;;;8.50;99.90;;;;;;4974856;28;20043;-76
2023/01/08 01:33:55;;;;;;;3.70;1.33;;;8.40;99.90;;;;;;4966209;28;20124;-76
2023/01/08 01:36:22;;;;;;;4.85;1.33;;;8.40;99.90;;;;;;4992232;28;20038;-76
2023/01/08 01:38:52;;;;;;;5.03;1.27;;;8.40;99.90;;;;;;4975542;28;20070;-76
2023/01/08 01:41:29;;;;;;;7.53;1.38;;;8.30;99.90;;;;;;4975160;28;20097;-76
2023/01/08 01:43:58;;;;;;;5.93;1.65;;;8.30;99.90;;;;;;4975291;28;20050;-76
2023/01/08 01:46:38;;;;;;;7.18;1.52;;;8.20;99.90;;;;;;4988745;28;20038;-76
2023/01/08 01:49:24;;;;;;;7.90;1.60;;;8.20;99.90;;;;;;4968171;28;20396;-75
2023/01/08 01:52:01;;;;;;;6.03;1.33;;;8.10;99.90;;;;;;4954881;28;20055;-75
2023/01/08 01:54:28;;;;;;;6.38;2.15;;;8.10;99.90;;;;;;4973158;28;20038;-75
2023/01/08 01:56:55;;;;;;;6.50;1.45;;;8.10;99.90;;;;;;4963493;28;20034;-75
2023/01/08 01:59:20;;;;;;;10.80;2.20;;;8.10;99.90;;;;;;4969439;28;20046;-76
2023/01/08 02:01:47;;;;;;;6.18;1.63;;;8.10;99.90;;;;;;4989528;28;20121;-76
2023/01/08 02:04:13;;;;;;;7.20;1.77;;;8.10;99.90;;;;;;4976127;28;20441;-76
2023/01/08 02:06:51;;;;;;;7.65;1.60;;;8.00;99.90;;;;;;4994042;28;20464;-75
2023/01/08 02:09:22;;;;;;;7.60;1.67;;;8.00;99.90;;;;;;4995072;28;20042;-75
2023/01/08 02:12:15;;;;;;;10.20;2.03;;;8.00;99.90;;;;;;4994244;28;20076;-75
2023/01/08 02:15:13;;;;;;;9.68;1.63;;;8.00;99.90;;;;;;4989652;28;20474;-75
2023/01/08 02:18:01;;;;;;;9.98;1.73;;;7.90;99.90;;;;;;4962871;28;20046;-75
2023/01/08 02:20:33;;;;;;;4.68;1.33;;;7.90;99.90;;;;;;4984570;28;20045;-76
2023/01/08 02:23:17;;;;;;;7.95;1.95;;;7.90;99.90;;;;;;4969677;28;20042;-76
2023/01/08 02:26:04;;;;;;;10.88;1.50;;;7.90;99.90;;;;;;4994037;28;20051;-75
2023/01/08 02:28:32;;;;;;;8.18;1.80;;;7.80;99.90;;;;;;4975008;28;20568;-76
2023/01/08 02:30:59;;;;;;;8.45;1.90;;;7.90;99.90;;;;;;4977711;28;20126;-76
2023/01/08 02:33:27;;;;;;;7.10;1.90;;;7.90;99.90;;;;;;4994909;28;20084;-75
2023/01/08 02:36:10;;;;;;;5.93;1.85;;;7.80;99.90;;;;;;4993804;28;20093;-75
2023/01/08 02:38:40;;;;;;;8.13;1.83;;;7.80;99.90;;;;;;4986991;28;20085;-75
2023/01/08 02:41:10;;;;;;;5.35;1.80;;;7.80;99.90;;;;;;4976104;28;20069;-75
2023/01/08 02:43:44;;;;;;;4.68;1.70;;;7.80;99.90;;;;;;4977509;28;20038;-75
2023/01/08 02:46:13;;;;;;;5.78;1.70;;;7.80;99.90;;;;;;4977651;28;20049;-75
2023/01/08 02:48:44;;;;;;;6.00;1.40;;;7.80;99.90;;;;;;4993445;28;20053;-75
2023/01/08 02:51:16;;;;;;;4.53;1.50;;;7.80;99.90;;;;;;4975986;28;20080;-75
2023/01/08 02:53:47;;;;;;;8.98;2.42;;;7.80;99.90;;;;;;4977258;28;20074;-75
2023/01/08 02:56:21;;;;;;;6.35;1.95;;;7.70;99.90;;;;;;4977212;28;20089;-76
2023/01/08 02:58:49;;;;;;;5.20;2.20;;;7.80;99.90;;;;;;4977567;28;20042;-76
2023/01/08 03:01:16;;;;;;;7.03;2.67;;;7.70;99.90;;;;;;4992574;28;20042;-76
2023/01/08 03:03:48;;;;;;;8.60;3.03;;;7.70;99.90;;;;;;4990332;28;20057;-75
2023/01/08 03:06:18;;;;;;;9.10;3.22;;;7.80;99.90;;;;;;4969282;28;20401;-75
2023/01/08 03:08:47;;;;;;;5.35;2.70;;;7.70;99.90;;;;;;4977005;28;20057;-75
2023/01/08 03:11:14;;;;;;;7.45;3.50;;;7.80;99.90;;;;;;4958120;28;20173;-76
2023/01/08 03:13:44;;;;;;;8.13;3.83;;;7.70;99.90;;;;;;4970634;28;20049;-76
2023/01/08 03:16:30;;;;;;;6.55;3.55;;;7.70;99.90;;;;;;4993943;28;20053;-76
2023/01/08 03:19:21;;;;;;;6.78;3.30;;;7.70;99.90;;;;;;4970094;28;20082;-76
2023/01/08 03:21:49;;;;;;;6.47;4.20;;;7.80;99.90;;;;;;4977981;28;20042;-76
2023/01/08 03:24:19;;;;;;;7.18;4.03;;;7.80;99.90;;;;;;5010289;28;20129;-75
2023/01/08 03:26:47;;;;;;;8.35;4.50;;;7.90;99.90;;;;;;4977258;28;20050;-76
2023/01/08 03:29:16;;;;;;;5.60;4.20;;;7.80;99.90;;;;;;4993425;28;20406;-76
2023/01/08 03:31:44;;;;;;;7.15;4.15;;;7.90;99.90;;;;;;4992727;28;20042;-76
2023/01/08 03:34:12;;;;;;;5.68;4.53;;;7.90;99.90;;;;;;4992274;28;20053;-76
2023/01/08 03:36:41;;;;;;;6.18;4.85;;;7.90;99.90;;;;;;4988131;28;20043;-76
2023/01/08 03:39:15;;;;;;;6.88;4.55;;;8.00;99.90;;;;;;4965960;28;20065;-76
2023/01/08 03:41:41;;;;;;;8.95;4.65;;;8.10;99.90;;;;;;4975643;28;20049;-76
2023/01/08 03:44:07;;;;;;;7.82;4.90;;;8.00;99.90;;;;;;4976028;28;20046;-76
2023/01/08 03:46:37;;;;;;;7.97;5.28;;;8.10;99.90;;;;;;4976342;28;20084;-76
2023/01/08 03:49:05;;;;;;;9.05;5.20;;;8.20;99.90;;;;;;4976370;28;20493;-76
2023/01/08 03:51:41;;;;;;;6.55;4.60;;;8.20;99.90;;;;;;4985545;28;20043;-75
2023/01/08 03:54:11;;;;;;;6.75;4.50;;;8.30;99.90;;;;;;4988332;28;20481;-76
2023/01/08 03:56:37;;;;;;;5.95;4.00;;;8.30;99.90;;;;;;4984492;28;20039;-76
2023/01/08 03:59:03;;;;;;;5.03;3.90;;;8.30;99.90;;;;;;4974027;28;20496;-76
2023/01/08 04:01:28;;;;;;;4.82;3.53;;;8.30;99.90;;;;;;4990668;28;20047;-75
2023/01/08 04:03:54;;;;;;;4.63;3.25;;;8.30;99.90;;;;;;4992012;28;20042;-76
2023/01/08 04:06:21;;;;;;;7.13;3.33;;;8.30;99.90;;;;;;5006472;23;20456;-81
2023/01/08 04:08:47;;;;;;;5.88;3.40;;;8.40;99.90;;;;;;5031483;28;20037;-81
2023/01/08 04:11:13;;;;;;;4.38;3.33;;;8.40;99.90;;;;;;5025370;28;20087;-80
2023/01/08 04:13:38;;;;;;;4.47;2.80;;;8.40;99.90;;;;;;5019548;28;20044;-80
2023/01/08 04:16:04;;;;;;;5.72;3.20;;;8.40;99.90;;;;;;5017074;28;20033;-81
2023/01/08 04:18:30;;;;;;;5.90;3.10;;;8.40;99.90;;;;;;5015952;28;20045;-80
2023/01/08 04:20:56;;;;;;;5.63;3.25;;;8.40;99.90;;;;;;5015972;28;20128;-81
2023/01/08 04:23:21;;;;;;;4.45;3.28;;;8.30;99.90;;;;;;4997980;28;20048;-81
2023/01/08 04:25:47;;;;;;;5.60;3.10;;;8.40;99.90;;;;;;4999893;28;20111;-81
2023/01/08 04:28:12;;;;;;;6.10;3.63;;;8.30;99.90;;;;;;5014662;28;20041;-81
2023/01/08 04:30:41;;;;;;;6.30;3.20;;;8.30;99.90;;;;;;4999952;28;20471;-81
2023/01/08 04:33:07;;;;;;;5.70;3.15;;;8.30;99.90;;;;;;4993319;28;20095;-81
2023/01/08 04:35:32;;;;;;;4.60;2.92;;;8.30;99.90;;;;;;5022069;28;20112;-80
2023/01/08 04:37:58;;;;;;;4.65;3.20;;;8.30;99.90;;;;;;4996127;28;20432;-81
2023/01/08 04:40:23;;;;;;;3.50;2.70;;;8.30;99.90;;;;;;5014652;28;20040;-80
2023/01/08 04:42:49;;;;;;;5.82;3.35;;;8.30;99.90;;;;;;5000016;28;20033;-81
2023/01/08 04:45:15;;;;;;;5.35;3.00;;;8.30;99.90;;;;;;5026124;28;20059;-81
2023/01/08 04:47:40;;;;;;;4.93;3.00;;;8.30;99.90;;;;;;5012945;28;20097;-81
2023/01/08 04:50:06;;;;;;;5.88;2.78;;;8.30;99.90;;;;;;4999216;28;20037;-80
2023/01/08 04:52:32;;;;;;;5.78;2.92;;;8.30;99.90;;;;;;5017048;28;20045;-81
2023/01/08 04:54:57;;;;;;;6.97;3.13;;;8.30;99.90;;;;;;5000924;28;20116;-81
2023/01/08 04:57:23;;;;;;;4.22;2.83;;;8.30;99.90;;;;;;4993614;28;20488;-81
2023/01/08 04:59:49;;;;;;;4.18;2.63;;;8.30;99.90;;;;;;4992488;28;20045;-79
2023/01/08 05:02:14;;;;;;;3.58;2.88;;;8.30;99.90;;;;;;5016691;28;20068;-80
2023/01/08 05:04:40;;;;;;;5.13;3.00;;;8.30;99.90;;;;;;5017173;28;20045;-81
2023/01/08 05:07:06;;;;;;;5.57;3.15;;;8.20;99.90;;;;;;4999251;28;20029;-81
2023/01/08 05:09:32;;;;;;;4.32;3.03;;;8.10;99.90;;;;;;5000669;28;20108;-81
2023/01/08 05:11:58;;;;;;;4.25;3.50;;;8.10;99.90;;;;;;5000569;28;20045;-81
2023/01/08 05:14:23;;;;;;;4.28;3.05;;;8.20;99.90;;;;;;5008581;28;20037;-80
2023/01/08 05:16:49;;;;;;;5.43;3.40;;;8.10;99.90;;;;;;4999881;28;20041;-81
2023/01/08 05:19:15;;;;;;;5.18;3.53;;;8.10;99.90;;;;;;5015050;28;20117;-80
2023/01/08 05:21:40;;;;;;;5.25;3.55;;;8.10;99.90;;;;;;5001272;28;20042;-81
2023/01/08 05:24:08;;;;;;;5.30;3.60;;;8.00;99.90;;;;;;5002482;28;20491;-81
2023/01/08 05:26:34;;;;;;;4.07;3.67;;;8.00;99.90;;;;;;4994850;28;20038;-80
2023/01/08 05:28:59;;;;;;;7.32;4.10;;;8.00;99.90;;;;;;4992995;28;20034;-81
2023/01/08 05:31:25;;;;;;;5.22;3.53;;;8.00;99.90;;;;;;5017791;28;20537;-80
2023/01/08 05:33:51;;;;;;;6.50;4.45;;;8.00;99.90;;;;;;5002219;28;20117;-81
2023/01/08 05:36:17;;;;;;;5.72;4.28;;;8.00;99.90;;;;;;5016498;28;20089;-81
2023/01/08 05:38:42;;;;;;;6.50;4.40;;;8.00;99.90;;;;;;5003462;28;20049;-81
2023/01/08 05:41:08;;;;;;;5.47;4.30;;;8.00;99.90;;;;;;4998867;28;20044;-80
2023/01/08 05:43:35;;;;;;;6.32;4.07;;;8.00;99.90;;;;;;5006318;28;20140;-81
2023/01/08 05:46:02;;;;;;;6.28;3.80;;;7.90;99.90;;;;;;5006043;28;20038;-81
2023/01/08 05:48:28;;;;;;;7.85;3.55;;;8.00;99.90;;;;;;5004650;28;20044;-80
2023/01/08 05:50:54;;;;;;;7.20;4.03;;;7.90;99.90;;;;;;5015702;28;20435;-81
2023/01/08 05:53:20;;;;;;;6.22;3.47;;;7.90;99.90;;;;;;5006640;28;20033;-81
2023/01/08 05:55:46;;;;;;;7.20;3.20;;;7.90;99.90;;;;;;5007396;28;20492;-81
2023/01/08 05:58:12;;;;;;;4.18;3.08;;;7.90;99.90;;;;;;5023612;28;20034;-80
2023/01/08 06:00:38;;;;;;;5.97;3.53;;;7.90;99.90;;;;;;5016670;28;20038;-81
2023/01/08 06:03:04;;;;;;;5.60;2.88;;;7.90;99.90;;;;;;4996387;28;20099;-81
2023/01/08 06:05:31;;;;;;;5.70;2.13;;;7.90;99.90;;;;;;5007767;28;20095;-81
2023/01/08 06:07:58;;;;;;;6.43;2.80;;;7.90;99.90;;;;;;5007861;28;20037;-80
2023/01/08 06:10:27;;;;;;;5.30;2.42;;;7.90;99.90;;;;;;5042255;28;20029;-80
2023/01/08 06:12:53;;;;;;;4.55;2.20;;;7.80;99.90;;;;;;5012392;28;20042;-80
2023/01/08 06:15:18;;;;;;;5.45;2.72;;;7.80;99.90;;;;;;5027331;28;20033;-81
2023/01/08 06:17:44;;;;;;;3.72;2.17;;;7.90;99.90;;;;;;5002274;28;20048;-81
2023/01/08 06:20:10;;;;;;;7.45;2.50;;;7.90;99.90;;;;;;5001728;28;20033;-80
2023/01/08 06:22:36;;;;;;;6.47;2.00;;;7.80;99.90;;;;;;5018821;28;20072;-81
2023/01/08 06:25:02;;;;;;;6.63;2.00;;;7.90;99.90;;;;;;5001079;28;20045;-81
2023/01/08 06:27:28;;;;;;;4.68;2.15;;;7.80;99.90;;;;;;5016354;28;20038;-80
2023/01/08 06:29:53;;;;;;;4.63;1.88;;;7.80;99.90;;;;;;5002060;28;20037;-80
2023/01/08 06:32:19;;;;;;;5.15;1.95;;;7.80;99.90;;;;;;5002196;28;20402;-81
2023/01/08 06:34:45;;;;;;;4.20;1.90;;;7.90;99.90;;;;;;5001146;28;20468;-80
2023/01/08 06:37:10;;;;;;;9.10;2.05;;;7.90;99.90;;;;;;5001615;28;20435;-80
2023/01/08 06:39:36;;;;;;;4.00;1.88;;;7.80;99.90;;;;;;5002957;28;20399;-81
2023/01/08 06:42:01;;;;;;;6.65;1.88;;;7.80;99.90;;;;;;5018141;28;20108;-81
2023/01/08 06:44:27;;;;;;;4.57;1.50;;;7.80;99.90;;;;;;4999609;28;20037;-79
2023/01/08 06:46:53;;;;;;;5.90;1.98;;;7.80;99.90;;;;;;5002469;28;20034;-81
2023/01/08 06:49:18;;;;;;;4.30;1.70;;;7.70;99.90;;;;;;5002992;28;20127;-81
2023/01/08 06:51:44;;;;;;;4.45;1.80;;;7.70;99.90;;;;;;5000854;28;20040;-80
2023/01/08 06:54:10;;;;;;;3.33;1.40;;;7.70;99.90;;;;;;4996707;28;20065;-80
2023/01/08 06:56:35;;;;;;;5.63;2.15;;;7.70;99.90;;;;;;5018307;28;20033;-81
2023/01/08 06:59:01;;;;;;;3.47;1.55;;;7.70;99.90;;;;;;5000798;28;20054;-81
2023/01/08 07:01:26;;;;;;;6.38;1.80;;;7.70;99.90;;;;;;4995027;28;20040;-81
2023/01/08 07:03:52;;;;;;;6.25;2.08;;;7.70;99.90;;;;;;5016133;28;20044;-81
2023/01/08 07:06:19;;;;;;;6.00;1.77;;;7.70;99.90;;;;;;5003302;28;20398;-80
2023/01/08 07:08:46;;;;;;;5.40;2.00;;;7.70;99.90;;;;;;5019087;28;20041;-81
2023/01/08 07:11:12;;;;;;;5.72;1.83;;;7.70;99.90;;;;;;4983762;28;20038;-81
2023/01/08 07:13:38;;;;;;;5.20;1.77;;;7.70;99.90;;;;;;5006306;28;20136;-79
2023/01/08 07:16:08;;;;;;;6.82;2.20;;;7.70;99.90;;;;;;5003170;28;20080;-81
2023/01/08 07:18:35;;;;;;;5.63;2.40;;;7.70;99.90;;;;;;5002635;28;20044;-81
2023/01/08 07:21:04;;;;;;;5.90;2.20;;;7.50;99.90;;;;;;5002762;28;20053;-80
2023/01/08 07:23:31;;;;;;;5.03;2.20;;;7.50;99.90;;;;;;5000929;28;20124;-81
2023/01/08 07:26:05;;;;;;;5.57;2.10;;;7.40;99.90;;;;;;5002369;28;20064;-80
2023/01/08 07:28:31;;;;;;;6.40;2.08;;;7.40;99.90;;;;;;5015143;28;20514;-81
2023/01/08 07:30:57;;;;;;;7.53;2.40;;;7.30;99.90;;;;;;4984992;28;20158;-80
2023/01/08 07:33:22;;;;;;;5.00;2.28;;;7.30;99.90;;;;;;4998549;28;20037;-81
2023/01/08 07:35:52;;;;;;;3.80;2.08;;;7.20;99.90;;;;;;4990196;28;20608;-80
2023/01/08 07:38:18;;;;;;;7.00;2.55;;;7.10;99.90;;;;;;4995159;28;20079;-81
2023/01/08 07:40:44;;;;;;;6.30;2.30;;;7.10;99.90;;;;;;5002929;28;20432;-80
2023/01/08 07:43:11;;;;;;;6.47;2.03;;;7.10;99.90;;;;;;5001076;28;20799;-81
2023/01/08 07:45:37;;;;;;;5.22;2.38;;;7.00;99.90;;;;;;4994561;28;20125;-81
2023/01/08 07:48:04;;;;;;;7.05;2.40;;;7.00;99.90;;;;;;5002217;28;20045;-79
2023/01/08 07:50:30;;;;;;;6.10;2.22;;;6.90;99.90;;;;;;5019920;28;20045;-80
2023/01/08 07:53:00;;;;;;;6.38;2.60;;;6.90;99.90;;;;;;5018644;28;20112;-81
2023/01/08 07:55:26;;;;;;;6.55;2.30;;;6.80;99.90;;;;;;5004541;28;20372;-80
2023/01/08 07:57:52;;;;;;;6.55;2.40;;;6.80;99.90;;;;;;5000901;28;20035;-81
2023/01/08 08:00:18;;;;;;;5.15;2.03;;;6.80;99.90;;;;;;5012359;28;20030;-77
2023/01/08 08:02:43;;;;;;;5.90;2.13;;;6.80;99.90;;;;;;5020947;28;20487;-78
2023/01/08 08:05:09;;;;;;;4.60;2.03;;;6.70;99.90;;;;;;5014872;28;20049;-77
2023/01/08 08:07:35;;;;;;;3.97;2.33;;;6.70;99.90;;;;;;5013723;28;20068;-79
2023/01/08 08:10:02;;;;;;;6.18;2.33;;;6.70;99.90;;;;;;5000805;28;20057;-78
2023/01/08 08:12:27;;;;;;;7.93;2.33;;;6.70;99.90;;;;;;4998852;28;20067;-78
2023/01/08 08:14:53;;;;;;;5.40;2.00;;;6.60;99.90;;;;;;5021350;28;20041;-78
2023/01/08 08:17:18;;;;;;;6.60;2.15;;;6.60;99.90;;;;;;5003956;28;20030;-78
2023/01/08 08:19:44;;;;;;;7.07;2.03;;;6.60;99.90;;;;;;5013778;28;20052;-78
2023/01/08 08:22:13;;;;;;;6.70;2.13;;;6.60;99.90;;;;;;5016934;28;20051;-79
2023/01/08 08:24:39;;;;;;;5.53;2.20;;;6.60;99.90;;;;;;5024388;28;20041;-78
2023/01/08 08:27:05;;;;;;;3.88;1.90;;;6.60;99.90;;;;;;5026038;28;20108;-78
2023/01/08 08:29:30;;;;;;;5.57;2.00;;;6.60;99.90;;;;;;5017752;28;20048;-78
2023/01/08 08:31:56;;;;;;;4.88;2.00;;;6.60;99.90;;;;;;5007617;28;20038;-78
2023/01/08 08:34:21;;;;;;;8.18;2.58;;;6.60;99.90;;;;;;5004154;28;20030;-78
2023/01/08 08:36:48;;;;;;;6.20;2.13;;;6.60;99.90;;;;;;5019389;28;20116;-78
2023/01/08 08:39:14;;;;;;;4.65;1.92;;;6.60;99.90;;;;;;5020159;28;20029;-78
2023/01/08 08:41:41;;;;;;;5.10;2.10;;;6.60;99.90;;;;;;5012710;28;20406;-78
2023/01/08 08:44:07;;;;;;;5.50;1.90;;;6.60;99.90;;;;;;5006932;28;20150;-78
2023/01/08 08:46:32;;;;;;;6.45;2.30;;;6.60;99.90;;;;;;5017586;28;20095;-78
2023/01/08 08:48:58;;;;;;;6.95;2.22;;;6.60;99.90;;;;;;4995998;28;20045;-78
2023/01/08 08:51:23;;;;;;;5.60;2.17;;;6.60;99.90;;;;;;5020083;28;20105;-77
2023/01/08 08:53:49;;;;;;;6.53;2.22;;;6.60;99.90;;;;;;5020846;28;20120;-77
2023/01/08 08:56:15;;;;;;;6.80;2.22;;;6.60;99.90;;;;;;5003670;28;20037;-78
2023/01/08 08:58:40;;;;;;;5.20;2.30;;;6.60;99.90;;;;;;5002563;28;20511;-78
2023/01/08 09:01:07;;;;;;;6.55;1.98;;;6.70;99.90;;;;;;5015878;28;20042;-78
2023/01/08 09:03:33;;;;;;;4.53;2.22;;;6.70;99.90;;;;;;5020951;28;20046;-78
2023/01/08 09:05:59;;;;;;;6.07;2.42;;;6.70;99.90;;;;;;4996847;28;20121;-77
2023/01/08 09:08:25;;;;;;;5.65;2.20;;;6.80;99.90;;;;;;5015446;28;20462;-78
2023/01/08 09:10:51;;;;;;;5.45;1.90;;;6.80;99.90;;;;;;5002299;28;20064;-78
2023/01/08 09:13:17;;;;;;;5.60;1.88;;;6.80;99.90;;;;;;4996135;28;20034;-78
2023/01/08 09:15:42;;;;;;;5.50;1.85;;;6.80;99.90;;;;;;4999797;28;20041;-78
2023/01/08 09:18:08;;;;;;;6.53;1.90;;;6.90;99.90;;;;;;5005243;28;20083;-78
2023/01/08 09:20:34;;;;;;;6.22;1.80;;;6.90;99.90;;;;;;5005454;28;20041;-77
2023/01/08 09:23:00;;;;;;;6.57;2.15;;;7.00;99.90;;;;;;5005201;28;20045;-77
2023/01/08 09:25:27;;;;;;;10.43;2.35;;;7.00;99.90;;;;;;5003917;28;20091;-77
2023/01/08 09:28:04;;;;;;;7.75;2.08;;;7.00;99.90;;;;;;5006049;28;20068;-77
2023/01/08 09:30:31;;;;;;;6.00;2.00;;;7.10;99.90;;;;;;5003524;28;20042;-75
2023/01/08 09:33:01;;;;;;;5.88;2.00;;;7.10;99.90;;;;;;5023344;28;20033;-74
2023/01/08 09:35:27;;;;;;;8.13;1.98;;;7.10;99.90;;;;;;5022469;28;20029;-75
2023/01/08 09:37:54;;;;;;;7.15;1.85;;;7.20;99.90;;;;;;5001143;28;20523;-75
2023/01/08 09:40:24;;;;;;;7.85;1.60;;;7.20;99.90;;;;;;5015176;28;20044;-75
2023/01/08 09:42:56;;;;;;;9.10;1.60;;;7.30;99.90;;;;;;5017168;28;20498;-74
2023/01/08 09:45:27;;;;;;;9.43;2.03;;;7.30;99.90;;;;;;5016614;28;20040;-74
2023/01/08 09:47:54;;;;;;;5.85;1.63;;;7.30;99.90;;;;;;5007588;28;20045;-74
2023/01/08 09:50:22;;;;;;;7.68;1.77;;;7.40;99.90;;;;;;5017610;28;20052;-75
2023/01/08 09:52:48;;;;;;;8.48;2.10;;;7.40;99.90;;;;;;5017198;28;20055;-75
2023/01/08 09:55:15;;;;;;;11.75;2.30;;;7.50;99.90;;;;;;5008138;28;20025;-74
2023/01/08 09:57:42;;;;;;;12.32;2.08;;;7.50;99.90;;;;;;5017374;28;20044;-78
2023/01/08 10:00:18;;;;;;;7.47;1.70;;;7.60;99.90;;;;;;5024052;28;20120;-78
2023/01/08 10:02:43;;;;;;;7.43;1.95;;;7.70;99.90;;;;;;5001416;28;20116;-78
2023/01/08 10:05:16;;;;;;;7.35;2.25;;;7.70;99.90;;;;;;5015379;28;20083;-79
2023/01/08 10:07:42;;;;;;;7.38;1.95;;;7.70;99.90;;;;;;5022126;28;20042;-78
2023/01/08 10:10:21;;;;;;;8.48;1.75;;;7.80;99.90;;;;;;5006005;28;20124;-79
2023/01/08 10:12:48;;;;;;;7.45;1.80;;;7.80;99.90;;;;;;5027104;28;20073;-79
2023/01/08 10:15:16;;;;;;;6.57;1.95;;;7.80;99.90;;;;;;5020960;28;20043;-80
2023/01/08 10:17:46;;;;;;;7.60;2.13;;;7.90;99.90;;;;;;5008317;28;20069;-79
2023/01/08 10:20:15;;;;;;;7.88;1.70;;;7.90;99.90;;;;;;5026694;28;20116;-77
2023/01/08 10:22:41;;;;;;;7.70;2.00;;;7.90;99.90;;;;;;5022899;28;20045;-79
2023/01/08 10:25:18;;;;;;;9.07;2.38;;;7.90;99.90;;;;;;5022422;28;20478;-77
2023/01/08 10:27:50;;;;;;;10.85;2.10;;;7.90;99.90;;;;;;5024579;28;20059;-80
2023/01/08 10:30:27;;;;;;;9.48;2.00;;;8.00;99.90;;;;;;5026207;28;20037;-78
2023/01/08 10:32:54;;;;;;;8.63;2.10;;;8.00;99.90;;;;;;5006163;28;20044;-78
2023/01/08 10:35:35;;;;;;;6.30;1.83;;;8.00;99.90;;;;;;5024644;28;20037;-82
2023/01/08 10:38:01;;;;;;;7.65;2.25;;;8.00;99.90;;;;;;5023919;28;20049;-81
2023/01/08 10:40:29;;;;;;;7.90;1.70;;;8.10;99.90;;;;;;5012858;28;20124;-82
2023/01/08 10:43:04;;;;;;;10.18;2.00;;;8.10;99.90;;;;;;4999355;28;20124;-80
2023/01/08 10:45:30;;;;;;;8.75;2.60;;;8.10;99.90;;;;;;5009776;28;20076;-79
2023/01/08 10:47:59;;;;;;;5.22;1.98;;;8.20;99.90;;;;;;4995144;28;20076;-78
2023/01/08 10:50:28;;;;;;;7.13;1.67;;;8.20;99.90;;;;;;5012348;28;20395;-79
2023/01/08 10:52:56;;;;;;;8.55;2.08;;;8.20;99.90;;;;;;5014162;28;20128;-83
2023/01/08 10:55:36;;;;;;;7.63;1.85;;;8.30;99.90;;;;;;5004880;28;20034;-84
2023/01/08 10:58:08;;;;;;;8.65;2.30;;;8.30;99.90;;;;;;5017907;28;20450;-80
2023/01/08 11:00:35;;;;;;;8.48;2.22;;;8.30;99.90;;;;;;5019150;28;20039;-78
2023/01/08 11:03:04;;;;;;;7.07;1.70;;;8.30;99.90;;;;;;5010056;28;20392;-77
2023/01/08 11:05:35;;;;;;;9.05;1.80;;;8.40;99.90;;;;;;5017415;28;20045;-78
2023/01/08 11:08:07;;;;;;;7.40;1.90;;;8.50;99.90;;;;;;5014616;28;20044;-79
2023/01/08 11:10:35;;;;;;;9.63;2.15;;;8.50;99.90;;;;;;4999493;28;20034;-78
2023/01/08 11:13:03;;;;;;;8.95;2.30;;;8.60;99.90;;;;;;5015434;28;20087;-77
2023/01/08 11:15:31;;;;;;;8.65;2.25;;;8.60;99.90;;;;;;5015211;28;20046;-78
2023/01/08 11:18:05;;;;;;;7.70;1.98;;;8.70;99.90;;;;;;4994727;28;20040;-79
2023/01/08 11:20:32;;;;;;;10.95;2.75;;;8.60;99.90;;;;;;5012451;28;20043;-77
2023/01/08 11:23:11;;;;;;;6.47;1.88;;;8.70;99.90;;;;;;5014672;28;20507;-77
2023/01/08 11:25:39;;;;;;;7.53;2.10;;;8.70;99.90;;;;;;5017217;28;20455;-78
2023/01/08 11:28:09;;;;;;;8.52;2.25;;;8.70;99.90;;;;;;4998125;28;20033;-78
2023/01/08 11:30:37;;;;;;;10.90;2.83;;;8.80;99.90;;;;;;5000798;28;20049;-77
2023/01/08 11:33:08;;;;;;;8.55;2.58;;;8.90;99.90;;;;;;5014023;28;20049;-77
2023/01/08 11:35:37;;;;;;;8.15;1.95;;;9.10;99.90;;;;;;5003739;28;20507;-78
2023/01/08 11:38:04;;;;;;;6.05;1.90;;;9.50;99.90;;;;;;5025887;28;20030;-78
2023/01/08 11:40:30;;;;;;;8.77;2.22;;;9.60;99.90;;;;;;5029727;28;20076;-78
2023/01/08 11:43:09;;;;;;;8.43;2.63;;;9.60;99.90;;;;;;5026825;28;20068;-79
2023/01/08 11:46:11;;;;;;;8.05;2.20;;;9.90;99.90;;;;;;5020519;28;20052;-79
2023/01/08 11:49:21;;;;;;;6.25;2.08;;;10.30;99.90;;;;;;5014730;28;20043;-80
2023/01/08 11:52:14;;;;;;;9.95;2.25;;;10.70;99.90;;;;;;5029503;28;20496;-78
2023/01/08 11:54:49;;;;;;;;;;;11.10;99.90;;;;;;5016156;28;20546;-78
2023/01/08 11:57:33;;;;;;;10.32;2.38;;;11.50;99.90;;;;;;4992715;28;19960;-79
2023/01/08 12:00:27;;;;;;;6.50;2.20;;;11.80;99.90;;;;;;4993232;28;20033;-78
2023/01/08 12:03:02;;;;;;;6.82;2.22;;;12.30;99.90;;;;;;5014496;28;20034;-79
2023/01/08 12:05:40;;;;;;;7.13;1.90;;;12.60;99.90;;;;;;5017807;28;20083;-80
2023/01/08 12:08:10;;;;;;;7.63;2.35;;;12.60;99.90;;;;;;5018223;28;20064;-78
2023/01/08 12:10:54;;;;;;;7.03;2.05;;;12.50;99.90;;;;;;5001944;28;20068;-79
2023/01/08 12:13:26;;;;;;;7.47;2.10;;;12.40;99.90;;;;;;5016535;28;20034;-81
2023/01/08 12:16:08;;;;;;;8.13;2.25;;;11.90;99.90;;;;;;5011473;28;20042;-78
2023/01/08 12:18:55;;;;;;;8.37;1.80;;;11.60;99.90;;;;;;5023514;28;20053;-78
2023/01/08 12:21:31;;;;;;;4.85;1.50;;;11.60;99.90;;;;;;5019134;28;20077;-78
2023/01/08 12:24:28;;;;;;;8.07;2.30;;;11.60;99.90;;;;;;5002765;28;20048;-78
2023/01/08 12:27:03;;;;;;;7.53;2.45;;;11.60;99.90;;;;;;5018467;28;20052;-78
2023/01/08 12:29:41;;;;;;;7.47;2.15;;;11.60;99.90;;;;;;5002704;28;20045;-78
2023/01/08 12:32:36;;;;;;;8.27;1.98;;;11.60;99.90;;;;;;5019424;28;20152;-77
2023/01/08 12:35:24;;;;;;;5.57;1.65;;;11.70;99.90;;;;;;5019807;28;20037;-78
2023/01/08 12:37:59;;;;;;;4.38;2.00;;;11.70;99.90;;;;;;5017104;28;20088;-78
2023/01/08 12:40:40;;;;;;;5.35;1.83;;;11.90;99.90;;;;;;4988571;28;20041;-78
2023/01/08 12:43:16;;;;;;;8.95;2.33;;;11.70;99.90;;;;;;5019187;28;20045;-78
2023/01/08 12:45:49;;;;;;;6.22;1.92;;;11.40;99.90;;;;;;5021430;28;20072;-78
2023/01/08 12:48:25;;;;;;;8.07;2.25;;;11.10;99.90;;;;;;5020635;28;20049;-78
2023/01/08 12:51:06;;;;;;;6.20;1.70;;;11.00;99.90;;;;;;5000795;28;20093;-78
2023/01/08 12:53:53;;;;;;;4.55;1.60;;;10.90;99.90;;;;;;4996191;28;20045;-76
2023/01/08 12:56:44;;;;;;;6.15;1.70;;;10.80;99.90;;;;;;5006745;28;20033;-78
2023/01/08 12:59:14;;;;;;;10.43;1.92;;;10.80;99.90;;;;;;4998942;28;20046;-78
2023/01/08 13:02:11;;;;;;;5.45;1.65;;;10.70;99.90;;;;;;5011584;28;20042;-77
2023/01/08 13:04:47;;;;;;;4.43;1.50;;;10.70;99.90;;;;;;5010744;28;20045;-77
2023/01/08 13:07:22;;;;;;;6.03;1.25;;;10.60;99.90;;;;;;4998934;28;20048;-77